sensor_id;sensor_type;location;lat;lon;timestamp;P1;durP1;ratioP1;P2;durP2;ratioP2
39930;SDS011;26635;-35.248;149.138;2023-05-10T00:00:46;3.40;;;1.55;;
39930;SDS011;26635;-35.248;149.138;2023-05-10T00:03:16;4.45;;;1.70;;
39930;SDS011;26635;-35.248;149.138;2023-05-10T00:05:48;4.30;;;1.75;;
39930;SDS011;26635;-35.248;149.138;2023-05-10T00:08:19;3.25;;;1.70;;
39930;SDS011;26635;-35.248;149.138;2023-05-10T00:10:58;5.38;;;2.17;;
39930;SDS011;26635;-35.248;149.138;2023-05-10T00:13:30;4.30;;;2.25;;
39930;SDS011;26635;-35.248;149.138;2023-05-10T00:16:01;4.82;;;1.27;;
39930;SDS011;26635;-35.248;149.138;2023-05-10T00:18:32;4.28;;;1.92;;
39930;SDS011;26635;-35.248;149.138;2023-05-10T00:21:03;5.30;;;2.92;;
39930;SDS011;26635;-35.248;149.138;2023-05-10T00:23:34;5.10;;;2.80;;
39930;SDS011;26635;-35.248;149.138;2023-05-10T00:26:05;4.15;;;1.90;;
39930;SDS011;26635;-35.248;149.138;2023-05-10T00:28:37;5.22;;;1.65;;
39930;SDS011;26635;-35.248;149.138;2023-05-10T00:31:13;2.30;;;1.25;;
39930;SDS011;26635;-35.248;149.138;2023-05-10T00:33:45;3.55;;;1.60;;
39930;SDS011;26635;-35.248;149.138;2023-05-10T00:36:16;2.88;;;1.40;;
39930;SDS011;26635;-35.248;149.138;2023-05-10T00:38:47;3.78;;;1.23;;
39930;SDS011;26635;-35.248;149.138;2023-05-10T00:41:18;4.57;;;1.60;;
39930;SDS011;26635;-35.248;149.138;2023-05-10T00:43:50;3.63;;;1.48;;
39930;SDS011;26635;-35.248;149.138;2023-05-10T00:46:20;2.92;;;1.42;;
39930;SDS011;26635;-35.248;149.138;2023-05-10T00:48:51;2.95;;;1.15;;
39930;SDS011;26635;-35.248;149.138;2023-05-10T00:51:23;2.17;;;0.90;;
39930;SDS011;26635;-35.248;149.138;2023-05-10T00:53:54;2.63;;;1.52;;
39930;SDS011;26635;-35.248;149.138;2023-05-10T00:56:25;2.20;;;1.13;;
39930;SDS011;26635;-35.248;149.138;2023-05-10T00:58:58;2.78;;;1.20;;
39930;SDS011;26635;-35.248;149.138;2023-05-10T01:01:30;2.60;;;1.40;;
39930;SDS011;26635;-35.248;149.138;2023-05-10T01:04:02;3.33;;;1.80;;
39930;SDS011;26635;-35.248;149.138;2023-05-10T01:06:33;3.47;;;1.65;;
39930;SDS011;26635;-35.248;149.138;2023-05-10T01:09:04;4.75;;;1.60;;
39930;SDS011;26635;-35.248;149.138;2023-05-10T01:11:36;4.05;;;1.67;;
39930;SDS011;26635;-35.248;149.138;2023-05-10T01:14:09;2.33;;;1.17;;
39930;SDS011;26635;-35.248;149.138;2023-05-10T01:16:40;3.78;;;1.50;;
39930;SDS011;26635;-35.248;149.138;2023-05-10T01:19:33;2.83;;;1.40;;
39930;SDS011;26635;-35.248;149.138;2023-05-10T01:33:11;3.08;;;1.75;;
39930;SDS011;26635;-35.248;149.138;2023-05-10T01:35:51;2.40;;;1.15;;
39930;SDS011;26635;-35.248;149.138;2023-05-10T01:44:34;1.65;;;0.80;;
39930;SDS011;26635;-35.248;149.138;2023-05-10T01:50:01;2.63;;;1.15;;
39930;SDS011;26635;-35.248;149.138;2023-05-10T01:52:38;2.20;;;1.42;;
39930;SDS011;26635;-35.248;149.138;2023-05-10T01:55:16;3.03;;;1.05;;
39930;SDS011;26635;-35.248;149.138;2023-05-10T01:57:51;2.15;;;1.13;;
39930;SDS011;26635;-35.248;149.138;2023-05-10T02:00:29;2.13;;;1.10;;
39930;SDS011;26635;-35.248;149.138;2023-05-10T02:03:03;2.28;;;0.93;;
39930;SDS011;26635;-35.248;149.138;2023-05-10T02:08:09;2.25;;;1.17;;
39930;SDS011;26635;-35.248;149.138;2023-05-10T02:10:41;3.80;;;1.65;;
39930;SDS011;26635;-35.248;149.138;2023-05-10T02:13:14;4.00;;;1.38;;
39930;SDS011;26635;-35.248;149.138;2023-05-10T02:15:48;3.38;;;1.40;;
39930;SDS011;26635;-35.248;149.138;2023-05-10T02:18:20;1.77;;;1.00;;
39930;SDS011;26635;-35.248;149.138;2023-05-10T02:20:53;2.05;;;1.00;;
39930;SDS011;26635;-35.248;149.138;2023-05-10T02:23:25;1.95;;;1.30;;
39930;SDS011;26635;-35.248;149.138;2023-05-10T02:25:57;1.38;;;0.90;;
39930;SDS011;26635;-35.248;149.138;2023-05-10T02:28:31;3.42;;;1.30;;
39930;SDS011;26635;-35.248;149.138;2023-05-10T02:31:03;1.88;;;1.00;;
39930;SDS011;26635;-35.248;149.138;2023-05-10T02:33:41;1.88;;;0.73;;
39930;SDS011;26635;-35.248;149.138;2023-05-10T02:36:13;1.85;;;0.80;;
39930;SDS011;26635;-35.248;149.138;2023-05-10T02:38:46;2.20;;;1.00;;
39930;SDS011;26635;-35.248;149.138;2023-05-10T02:41:20;1.63;;;0.90;;
39930;SDS011;26635;-35.248;149.138;2023-05-10T02:43:53;1.85;;;0.80;;
39930;SDS011;26635;-35.248;149.138;2023-05-10T02:46:47;3.05;;;1.35;;
39930;SDS011;26635;-35.248;149.138;2023-05-10T02:49:19;2.72;;;1.10;;
39930;SDS011;26635;-35.248;149.138;2023-05-10T02:51:55;3.35;;;1.05;;
39930;SDS011;26635;-35.248;149.138;2023-05-10T02:54:31;2.10;;;0.90;;
39930;SDS011;26635;-35.248;149.138;2023-05-10T02:57:07;2.92;;;1.30;;
39930;SDS011;26635;-35.248;149.138;2023-05-10T02:59:44;3.08;;;1.05;;
39930;SDS011;26635;-35.248;149.138;2023-05-10T03:02:16;2.60;;;1.30;;
39930;SDS011;26635;-35.248;149.138;2023-05-10T03:04:48;2.72;;;0.90;;
39930;SDS011;26635;-35.248;149.138;2023-05-10T03:07:19;2.30;;;1.10;;
39930;SDS011;26635;-35.248;149.138;2023-05-10T03:09:50;3.20;;;1.08;;
39930;SDS011;26635;-35.248;149.138;2023-05-10T03:12:41;2.22;;;0.98;;
39930;SDS011;26635;-35.248;149.138;2023-05-10T03:18:21;2.22;;;1.42;;
39930;SDS011;26635;-35.248;149.138;2023-05-10T03:21:02;1.60;;;0.70;;
39930;SDS011;26635;-35.248;149.138;2023-05-10T03:23:44;1.60;;;0.80;;
39930;SDS011;26635;-35.248;149.138;2023-05-10T03:26:26;2.40;;;1.13;;
39930;SDS011;26635;-35.248;149.138;2023-05-10T03:28:59;1.90;;;0.93;;
39930;SDS011;26635;-35.248;149.138;2023-05-10T03:31:33;1.80;;;0.98;;
39930;SDS011;26635;-35.248;149.138;2023-05-10T03:34:05;5.60;;;2.20;;
39930;SDS011;26635;-35.248;149.138;2023-05-10T03:36:36;2.90;;;0.75;;
39930;SDS011;26635;-35.248;149.138;2023-05-10T03:39:07;1.70;;;0.70;;
39930;SDS011;26635;-35.248;149.138;2023-05-10T03:41:37;2.38;;;0.65;;
39930;SDS011;26635;-35.248;149.138;2023-05-10T03:44:07;1.50;;;1.05;;
39930;SDS011;26635;-35.248;149.138;2023-05-10T03:46:38;1.83;;;0.77;;
39930;SDS011;26635;-35.248;149.138;2023-05-10T03:49:08;1.70;;;0.60;;
39930;SDS011;26635;-35.248;149.138;2023-05-10T03:51:40;2.35;;;0.93;;
39930;SDS011;26635;-35.248;149.138;2023-05-10T03:54:11;1.70;;;0.90;;
39930;SDS011;26635;-35.248;149.138;2023-05-10T03:56:41;1.65;;;0.70;;
39930;SDS011;26635;-35.248;149.138;2023-05-10T03:59:12;1.52;;;0.80;;
39930;SDS011;26635;-35.248;149.138;2023-05-10T04:01:45;2.13;;;1.00;;
39930;SDS011;26635;-35.248;149.138;2023-05-10T04:04:16;1.98;;;1.05;;
39930;SDS011;26635;-35.248;149.138;2023-05-10T04:06:49;1.88;;;0.73;;
39930;SDS011;26635;-35.248;149.138;2023-05-10T04:09:20;1.85;;;0.80;;
39930;SDS011;26635;-35.248;149.138;2023-05-10T04:11:51;1.75;;;0.60;;
39930;SDS011;26635;-35.248;149.138;2023-05-10T04:14:21;1.95;;;0.75;;
39930;SDS011;26635;-35.248;149.138;2023-05-10T04:16:52;1.38;;;0.73;;
39930;SDS011;26635;-35.248;149.138;2023-05-10T04:19:24;1.77;;;0.80;;
39930;SDS011;26635;-35.248;149.138;2023-05-10T04:22:03;2.10;;;0.98;;
39930;SDS011;26635;-35.248;149.138;2023-05-10T04:24:34;1.10;;;0.55;;
39930;SDS011;26635;-35.248;149.138;2023-05-10T04:27:04;0.95;;;0.60;;
39930;SDS011;26635;-35.248;149.138;2023-05-10T04:29:35;1.50;;;0.73;;
39930;SDS011;26635;-35.248;149.138;2023-05-10T04:32:07;1.50;;;0.70;;
39930;SDS011;26635;-35.248;149.138;2023-05-10T04:34:39;1.63;;;0.80;;
39930;SDS011;26635;-35.248;149.138;2023-05-10T04:37:09;1.23;;;0.52;;
39930;SDS011;26635;-35.248;149.138;2023-05-10T04:39:40;2.20;;;0.50;;
39930;SDS011;26635;-35.248;149.138;2023-05-10T04:42:12;1.10;;;0.60;;
39930;SDS011;26635;-35.248;149.138;2023-05-10T04:44:44;1.52;;;0.68;;
39930;SDS011;26635;-35.248;149.138;2023-05-10T04:47:15;1.15;;;0.75;;
39930;SDS011;26635;-35.248;149.138;2023-05-10T04:49:46;3.13;;;1.05;;
39930;SDS011;26635;-35.248;149.138;2023-05-10T04:52:17;1.90;;;0.65;;
39930;SDS011;26635;-35.248;149.138;2023-05-10T04:54:49;2.55;;;0.82;;
39930;SDS011;26635;-35.248;149.138;2023-05-10T04:57:21;1.33;;;0.60;;
39930;SDS011;26635;-35.248;149.138;2023-05-10T04:59:52;2.15;;;0.68;;
39930;SDS011;26635;-35.248;149.138;2023-05-10T05:02:23;1.13;;;0.40;;
39930;SDS011;26635;-35.248;149.138;2023-05-10T05:04:55;3.15;;;0.50;;
39930;SDS011;26635;-35.248;149.138;2023-05-10T05:07:28;2.13;;;0.95;;
39930;SDS011;26635;-35.248;149.138;2023-05-10T05:10:00;1.40;;;0.75;;
39930;SDS011;26635;-35.248;149.138;2023-05-10T05:12:32;2.08;;;0.50;;
39930;SDS011;26635;-35.248;149.138;2023-05-10T05:15:03;1.52;;;0.60;;
39930;SDS011;26635;-35.248;149.138;2023-05-10T05:17:35;3.10;;;0.70;;
39930;SDS011;26635;-35.248;149.138;2023-05-10T05:20:06;1.10;;;0.70;;
39930;SDS011;26635;-35.248;149.138;2023-05-10T05:22:37;1.55;;;0.60;;
39930;SDS011;26635;-35.248;149.138;2023-05-10T05:25:08;1.77;;;0.60;;
39930;SDS011;26635;-35.248;149.138;2023-05-10T05:27:40;1.85;;;0.60;;
39930;SDS011;26635;-35.248;149.138;2023-05-10T05:30:11;1.40;;;0.68;;
39930;SDS011;26635;-35.248;149.138;2023-05-10T05:32:42;1.23;;;0.65;;
39930;SDS011;26635;-35.248;149.138;2023-05-10T05:35:13;1.10;;;0.47;;
39930;SDS011;26635;-35.248;149.138;2023-05-10T05:37:44;1.98;;;0.57;;
39930;SDS011;26635;-35.248;149.138;2023-05-10T05:40:15;1.00;;;0.60;;
39930;SDS011;26635;-35.248;149.138;2023-05-10T05:42:46;2.50;;;0.80;;
39930;SDS011;26635;-35.248;149.138;2023-05-10T05:45:17;1.55;;;0.70;;
39930;SDS011;26635;-35.248;149.138;2023-05-10T05:47:51;1.75;;;1.00;;
39930;SDS011;26635;-35.248;149.138;2023-05-10T05:50:21;2.20;;;0.70;;
39930;SDS011;26635;-35.248;149.138;2023-05-10T05:52:52;1.95;;;0.70;;
39930;SDS011;26635;-35.248;149.138;2023-05-10T05:55:22;1.25;;;0.63;;
39930;SDS011;26635;-35.248;149.138;2023-05-10T05:57:55;2.78;;;1.35;;
39930;SDS011;26635;-35.248;149.138;2023-05-10T06:00:27;3.40;;;1.15;;
39930;SDS011;26635;-35.248;149.138;2023-05-10T06:02:59;2.22;;;1.08;;
39930;SDS011;26635;-35.248;149.138;2023-05-10T06:05:31;1.42;;;0.70;;
39930;SDS011;26635;-35.248;149.138;2023-05-10T06:08:02;1.70;;;0.70;;
39930;SDS011;26635;-35.248;149.138;2023-05-10T06:10:38;1.60;;;0.50;;
39930;SDS011;26635;-35.248;149.138;2023-05-10T06:13:08;2.00;;;1.13;;
39930;SDS011;26635;-35.248;149.138;2023-05-10T06:15:40;1.42;;;0.40;;
39930;SDS011;26635;-35.248;149.138;2023-05-10T06:18:12;1.42;;;0.60;;
39930;SDS011;26635;-35.248;149.138;2023-05-10T06:20:42;1.50;;;0.70;;
39930;SDS011;26635;-35.248;149.138;2023-05-10T06:23:15;2.10;;;0.80;;
39930;SDS011;26635;-35.248;149.138;2023-05-10T06:25:47;1.48;;;0.80;;
39930;SDS011;26635;-35.248;149.138;2023-05-10T06:28:19;1.65;;;0.65;;
39930;SDS011;26635;-35.248;149.138;2023-05-10T06:30:50;1.50;;;0.70;;
39930;SDS011;26635;-35.248;149.138;2023-05-10T06:33:22;2.38;;;1.00;;
39930;SDS011;26635;-35.248;149.138;2023-05-10T06:35:52;1.10;;;0.52;;
39930;SDS011;26635;-35.248;149.138;2023-05-10T06:38:26;2.03;;;1.42;;
39930;SDS011;26635;-35.248;149.138;2023-05-10T06:40:57;1.25;;;0.60;;
39930;SDS011;26635;-35.248;149.138;2023-05-10T06:43:29;1.23;;;0.60;;
39930;SDS011;26635;-35.248;149.138;2023-05-10T06:46:01;2.55;;;0.80;;
39930;SDS011;26635;-35.248;149.138;2023-05-10T06:48:33;2.05;;;0.88;;
39930;SDS011;26635;-35.248;149.138;2023-05-10T06:51:05;1.23;;;0.70;;
39930;SDS011;26635;-35.248;149.138;2023-05-10T06:53:35;4.28;;;0.70;;
39930;SDS011;26635;-35.248;149.138;2023-05-10T06:56:07;1.52;;;0.68;;
39930;SDS011;26635;-35.248;149.138;2023-05-10T06:58:37;2.13;;;0.90;;
39930;SDS011;26635;-35.248;149.138;2023-05-10T07:01:09;3.88;;;1.00;;
39930;SDS011;26635;-35.248;149.138;2023-05-10T07:03:40;2.35;;;1.00;;
39930;SDS011;26635;-35.248;149.138;2023-05-10T07:06:11;3.22;;;0.93;;
39930;SDS011;26635;-35.248;149.138;2023-05-10T07:08:58;4.07;;;2.08;;
39930;SDS011;26635;-35.248;149.138;2023-05-10T07:11:29;5.65;;;1.98;;
39930;SDS011;26635;-35.248;149.138;2023-05-10T07:14:00;4.75;;;2.83;;
39930;SDS011;26635;-35.248;149.138;2023-05-10T07:16:31;7.85;;;3.38;;
39930;SDS011;26635;-35.248;149.138;2023-05-10T07:19:02;12.13;;;6.95;;
39930;SDS011;26635;-35.248;149.138;2023-05-10T07:21:34;12.73;;;5.63;;
39930;SDS011;26635;-35.248;149.138;2023-05-10T07:24:06;12.07;;;6.75;;
39930;SDS011;26635;-35.248;149.138;2023-05-10T07:26:37;8.95;;;5.07;;
39930;SDS011;26635;-35.248;149.138;2023-05-10T07:29:08;7.60;;;4.65;;
39930;SDS011;26635;-35.248;149.138;2023-05-10T07:31:39;7.68;;;4.68;;
39930;SDS011;26635;-35.248;149.138;2023-05-10T07:34:11;6.93;;;3.88;;
39930;SDS011;26635;-35.248;149.138;2023-05-10T07:36:42;4.70;;;2.33;;
39930;SDS011;26635;-35.248;149.138;2023-05-10T07:39:12;1.50;;;0.73;;
39930;SDS011;26635;-35.248;149.138;2023-05-10T07:41:53;5.55;;;0.80;;
39930;SDS011;26635;-35.248;149.138;2023-05-10T07:44:24;3.05;;;0.90;;
39930;SDS011;26635;-35.248;149.138;2023-05-10T07:46:54;2.47;;;1.00;;
39930;SDS011;26635;-35.248;149.138;2023-05-10T07:49:25;4.15;;;1.88;;
39930;SDS011;26635;-35.248;149.138;2023-05-10T07:51:55;4.53;;;2.63;;
39930;SDS011;26635;-35.248;149.138;2023-05-10T07:54:26;3.00;;;1.70;;
39930;SDS011;26635;-35.248;149.138;2023-05-10T07:56:56;2.97;;;1.95;;
39930;SDS011;26635;-35.248;149.138;2023-05-10T07:59:28;5.55;;;2.70;;
39930;SDS011;26635;-35.248;149.138;2023-05-10T08:01:58;6.32;;;2.97;;
39930;SDS011;26635;-35.248;149.138;2023-05-10T08:04:29;6.28;;;3.47;;
39930;SDS011;26635;-35.248;149.138;2023-05-10T08:07:00;5.68;;;4.30;;
39930;SDS011;26635;-35.248;149.138;2023-05-10T08:09:30;7.32;;;5.07;;
39930;SDS011;26635;-35.248;149.138;2023-05-10T08:12:01;13.82;;;8.80;;
39930;SDS011;26635;-35.248;149.138;2023-05-10T08:14:31;12.80;;;8.50;;
39930;SDS011;26635;-35.248;149.138;2023-05-10T08:17:02;11.60;;;7.88;;
39930;SDS011;26635;-35.248;149.138;2023-05-10T08:19:33;17.17;;;8.50;;
39930;SDS011;26635;-35.248;149.138;2023-05-10T08:22:04;15.05;;;8.93;;
39930;SDS011;26635;-35.248;149.138;2023-05-10T08:24:35;12.52;;;7.38;;
39930;SDS011;26635;-35.248;149.138;2023-05-10T08:27:07;12.57;;;7.50;;
39930;SDS011;26635;-35.248;149.138;2023-05-10T08:29:37;8.93;;;6.68;;
39930;SDS011;26635;-35.248;149.138;2023-05-10T08:32:15;12.60;;;7.18;;
39930;SDS011;26635;-35.248;149.138;2023-05-10T08:34:47;7.80;;;5.63;;
39930;SDS011;26635;-35.248;149.138;2023-05-10T08:37:19;9.05;;;6.35;;
39930;SDS011;26635;-35.248;149.138;2023-05-10T08:39:51;11.50;;;6.32;;
39930;SDS011;26635;-35.248;149.138;2023-05-10T08:42:22;9.30;;;5.88;;
39930;SDS011;26635;-35.248;149.138;2023-05-10T08:44:56;22.50;;;7.25;;
39930;SDS011;26635;-35.248;149.138;2023-05-10T08:47:28;9.85;;;5.65;;
39930;SDS011;26635;-35.248;149.138;2023-05-10T08:50:00;9.60;;;6.07;;
39930;SDS011;26635;-35.248;149.138;2023-05-10T08:52:35;11.48;;;6.68;;
39930;SDS011;26635;-35.248;149.138;2023-05-10T08:55:08;10.70;;;6.28;;
39930;SDS011;26635;-35.248;149.138;2023-05-10T08:57:40;10.82;;;7.45;;
39930;SDS011;26635;-35.248;149.138;2023-05-10T09:00:12;11.45;;;6.90;;
39930;SDS011;26635;-35.248;149.138;2023-05-10T09:02:45;12.45;;;6.97;;
39930;SDS011;26635;-35.248;149.138;2023-05-10T09:05:17;11.43;;;6.63;;
39930;SDS011;26635;-35.248;149.138;2023-05-10T09:07:48;13.73;;;7.60;;
39930;SDS011;26635;-35.248;149.138;2023-05-10T09:10:19;14.30;;;8.30;;
39930;SDS011;26635;-35.248;149.138;2023-05-10T09:12:51;12.75;;;8.05;;
39930;SDS011;26635;-35.248;149.138;2023-05-10T09:15:25;29.60;;;8.13;;
39930;SDS011;26635;-35.248;149.138;2023-05-10T09:17:56;12.77;;;7.25;;
39930;SDS011;26635;-35.248;149.138;2023-05-10T09:20:28;12.18;;;7.20;;
39930;SDS011;26635;-35.248;149.138;2023-05-10T09:23:00;10.25;;;7.10;;
39930;SDS011;26635;-35.248;149.138;2023-05-10T09:25:30;17.60;;;7.15;;
39930;SDS011;26635;-35.248;149.138;2023-05-10T09:28:06;12.18;;;6.88;;
39930;SDS011;26635;-35.248;149.138;2023-05-10T09:30:40;12.07;;;7.82;;
39930;SDS011;26635;-35.248;149.138;2023-05-10T09:33:11;10.10;;;6.80;;
39930;SDS011;26635;-35.248;149.138;2023-05-10T09:35:42;10.38;;;5.97;;
39930;SDS011;26635;-35.248;149.138;2023-05-10T09:38:13;10.90;;;7.32;;
39930;SDS011;26635;-35.248;149.138;2023-05-10T09:40:52;11.85;;;6.72;;
39930;SDS011;26635;-35.248;149.138;2023-05-10T09:43:24;15.48;;;9.32;;
39930;SDS011;26635;-35.248;149.138;2023-05-10T09:45:57;20.63;;;11.35;;
39930;SDS011;26635;-35.248;149.138;2023-05-10T09:48:31;19.38;;;12.68;;
39930;SDS011;26635;-35.248;149.138;2023-05-10T09:51:02;22.42;;;12.90;;
39930;SDS011;26635;-35.248;149.138;2023-05-10T09:53:33;17.60;;;10.98;;
39930;SDS011;26635;-35.248;149.138;2023-05-10T09:56:04;16.23;;;10.80;;
39930;SDS011;26635;-35.248;149.138;2023-05-10T09:58:36;17.42;;;12.65;;
39930;SDS011;26635;-35.248;149.138;2023-05-10T10:01:11;14.02;;;8.88;;
39930;SDS011;26635;-35.248;149.138;2023-05-10T10:03:42;16.38;;;9.32;;
39930;SDS011;26635;-35.248;149.138;2023-05-10T10:06:18;17.55;;;10.98;;
39930;SDS011;26635;-35.248;149.138;2023-05-10T10:08:56;13.77;;;8.98;;
39930;SDS011;26635;-35.248;149.138;2023-05-10T10:11:27;16.75;;;9.65;;
39930;SDS011;26635;-35.248;149.138;2023-05-10T10:13:58;13.35;;;8.80;;
39930;SDS011;26635;-35.248;149.138;2023-05-10T10:16:30;14.27;;;8.95;;
39930;SDS011;26635;-35.248;149.138;2023-05-10T10:19:02;12.32;;;7.65;;
39930;SDS011;26635;-35.248;149.138;2023-05-10T10:21:33;11.73;;;6.95;;
39930;SDS011;26635;-35.248;149.138;2023-05-10T10:24:04;11.90;;;7.20;;
39930;SDS011;26635;-35.248;149.138;2023-05-10T10:26:35;11.15;;;6.47;;
39930;SDS011;26635;-35.248;149.138;2023-05-10T10:35:18;10.65;;;7.05;;
39930;SDS011;26635;-35.248;149.138;2023-05-10T10:37:49;12.32;;;7.22;;
39930;SDS011;26635;-35.248;149.138;2023-05-10T10:42:55;15.02;;;8.88;;
39930;SDS011;26635;-35.248;149.138;2023-05-10T10:45:29;15.75;;;9.65;;
39930;SDS011;26635;-35.248;149.138;2023-05-10T10:50:57;12.25;;;8.43;;
39930;SDS011;26635;-35.248;149.138;2023-05-10T10:53:28;17.25;;;11.77;;
39930;SDS011;26635;-35.248;149.138;2023-05-10T10:56:10;17.40;;;10.35;;
39930;SDS011;26635;-35.248;149.138;2023-05-10T10:58:48;15.20;;;9.35;;
39930;SDS011;26635;-35.248;149.138;2023-05-10T11:01:22;12.95;;;9.10;;
39930;SDS011;26635;-35.248;149.138;2023-05-10T11:06:35;14.32;;;10.07;;
39930;SDS011;26635;-35.248;149.138;2023-05-10T11:09:07;15.73;;;11.30;;
39930;SDS011;26635;-35.248;149.138;2023-05-10T11:11:53;16.13;;;11.40;;
39930;SDS011;26635;-35.248;149.138;2023-05-10T11:14:24;14.77;;;9.82;;
39930;SDS011;26635;-35.248;149.138;2023-05-10T11:16:58;15.00;;;9.77;;
39930;SDS011;26635;-35.248;149.138;2023-05-10T11:19:33;17.20;;;11.68;;
39930;SDS011;26635;-35.248;149.138;2023-05-10T11:24:39;17.05;;;10.88;;
39930;SDS011;26635;-35.248;149.138;2023-05-10T11:27:27;18.55;;;12.10;;
39930;SDS011;26635;-35.248;149.138;2023-05-10T11:29:58;23.05;;;14.65;;
39930;SDS011;26635;-35.248;149.138;2023-05-10T11:32:30;23.58;;;15.50;;
39930;SDS011;26635;-35.248;149.138;2023-05-10T11:35:11;19.95;;;13.93;;
39930;SDS011;26635;-35.248;149.138;2023-05-10T11:37:43;17.23;;;11.20;;
39930;SDS011;26635;-35.248;149.138;2023-05-10T11:40:18;31.25;;;19.98;;
39930;SDS011;26635;-35.248;149.138;2023-05-10T11:42:55;28.38;;;19.30;;
39930;SDS011;26635;-35.248;149.138;2023-05-10T11:45:32;24.50;;;17.48;;
39930;SDS011;26635;-35.248;149.138;2023-05-10T11:48:04;28.55;;;16.67;;
39930;SDS011;26635;-35.248;149.138;2023-05-10T11:50:38;23.30;;;13.90;;
39930;SDS011;26635;-35.248;149.138;2023-05-10T11:53:15;18.45;;;12.88;;
39930;SDS011;26635;-35.248;149.138;2023-05-10T11:55:46;21.60;;;12.95;;
39930;SDS011;26635;-35.248;149.138;2023-05-10T11:58:17;25.45;;;13.88;;
39930;SDS011;26635;-35.248;149.138;2023-05-10T12:00:50;28.23;;;17.60;;
39930;SDS011;26635;-35.248;149.138;2023-05-10T12:03:21;26.17;;;15.32;;
39930;SDS011;26635;-35.248;149.138;2023-05-10T12:05:54;24.17;;;14.00;;
39930;SDS011;26635;-35.248;149.138;2023-05-10T12:08:27;21.00;;;14.32;;
39930;SDS011;26635;-35.248;149.138;2023-05-10T12:11:07;20.67;;;13.63;;
39930;SDS011;26635;-35.248;149.138;2023-05-10T12:13:43;20.88;;;12.75;;
39930;SDS011;26635;-35.248;149.138;2023-05-10T12:16:22;22.75;;;13.13;;
39930;SDS011;26635;-35.248;149.138;2023-05-10T12:18:59;21.85;;;11.98;;
39930;SDS011;26635;-35.248;149.138;2023-05-10T12:21:30;19.20;;;11.52;;
39930;SDS011;26635;-35.248;149.138;2023-05-10T12:24:03;19.90;;;12.13;;
39930;SDS011;26635;-35.248;149.138;2023-05-10T12:26:41;19.45;;;11.15;;
39930;SDS011;26635;-35.248;149.138;2023-05-10T12:29:30;22.38;;;13.27;;
39930;SDS011;26635;-35.248;149.138;2023-05-10T12:32:01;19.70;;;11.32;;
39930;SDS011;26635;-35.248;149.138;2023-05-10T12:34:33;17.15;;;10.25;;
39930;SDS011;26635;-35.248;149.138;2023-05-10T12:37:08;21.73;;;11.10;;
39930;SDS011;26635;-35.248;149.138;2023-05-10T12:39:41;21.60;;;10.82;;
39930;SDS011;26635;-35.248;149.138;2023-05-10T12:42:14;16.02;;;10.55;;
39930;SDS011;26635;-35.248;149.138;2023-05-10T12:44:47;17.98;;;11.27;;
39930;SDS011;26635;-35.248;149.138;2023-05-10T12:47:19;17.98;;;10.30;;
39930;SDS011;26635;-35.248;149.138;2023-05-10T12:49:51;19.33;;;9.57;;
39930;SDS011;26635;-35.248;149.138;2023-05-10T12:52:22;16.60;;;9.15;;
39930;SDS011;26635;-35.248;149.138;2023-05-10T12:54:56;10.88;;;7.13;;
39930;SDS011;26635;-35.248;149.138;2023-05-10T12:57:28;13.32;;;7.22;;
39930;SDS011;26635;-35.248;149.138;2023-05-10T13:00:00;16.42;;;7.35;;
39930;SDS011;26635;-35.248;149.138;2023-05-10T13:02:32;10.90;;;6.90;;
39930;SDS011;26635;-35.248;149.138;2023-05-10T13:05:03;11.23;;;6.63;;
39930;SDS011;26635;-35.248;149.138;2023-05-10T13:07:37;14.15;;;8.00;;
39930;SDS011;26635;-35.248;149.138;2023-05-10T13:10:08;12.75;;;6.70;;
39930;SDS011;26635;-35.248;149.138;2023-05-10T13:12:42;15.13;;;8.30;;
39930;SDS011;26635;-35.248;149.138;2023-05-10T13:15:13;27.10;;;8.63;;
39930;SDS011;26635;-35.248;149.138;2023-05-10T13:17:43;11.82;;;5.88;;
39930;SDS011;26635;-35.248;149.138;2023-05-10T13:20:14;10.80;;;5.75;;
39930;SDS011;26635;-35.248;149.138;2023-05-10T13:22:44;11.52;;;5.35;;
39930;SDS011;26635;-35.248;149.138;2023-05-10T13:25:18;9.88;;;5.43;;
39930;SDS011;26635;-35.248;149.138;2023-05-10T13:27:49;10.38;;;5.45;;
39930;SDS011;26635;-35.248;149.138;2023-05-10T13:30:22;10.27;;;5.20;;
39930;SDS011;26635;-35.248;149.138;2023-05-10T13:32:53;9.43;;;5.38;;
39930;SDS011;26635;-35.248;149.138;2023-05-10T13:35:25;9.13;;;5.13;;
39930;SDS011;26635;-35.248;149.138;2023-05-10T13:37:57;7.68;;;4.03;;
39930;SDS011;26635;-35.248;149.138;2023-05-10T13:40:27;8.32;;;4.15;;
39930;SDS011;26635;-35.248;149.138;2023-05-10T13:42:58;8.02;;;4.57;;
39930;SDS011;26635;-35.248;149.138;2023-05-10T13:45:29;6.15;;;3.63;;
39930;SDS011;26635;-35.248;149.138;2023-05-10T13:48:00;8.63;;;4.90;;
39930;SDS011;26635;-35.248;149.138;2023-05-10T13:50:32;9.70;;;4.85;;
39930;SDS011;26635;-35.248;149.138;2023-05-10T13:53:02;7.07;;;4.07;;
39930;SDS011;26635;-35.248;149.138;2023-05-10T13:55:34;8.23;;;3.58;;
39930;SDS011;26635;-35.248;149.138;2023-05-10T13:58:04;8.32;;;3.92;;
39930;SDS011;26635;-35.248;149.138;2023-05-10T14:00:34;6.43;;;3.58;;
39930;SDS011;26635;-35.248;149.138;2023-05-10T14:03:05;7.45;;;3.78;;
39930;SDS011;26635;-35.248;149.138;2023-05-10T14:05:38;7.93;;;3.65;;
39930;SDS011;26635;-35.248;149.138;2023-05-10T14:08:08;7.88;;;3.50;;
39930;SDS011;26635;-35.248;149.138;2023-05-10T14:10:39;9.43;;;3.50;;
39930;SDS011;26635;-35.248;149.138;2023-05-10T14:13:10;10.48;;;3.55;;
39930;SDS011;26635;-35.248;149.138;2023-05-10T14:15:41;7.50;;;3.63;;
39930;SDS011;26635;-35.248;149.138;2023-05-10T14:18:13;8.70;;;3.78;;
39930;SDS011;26635;-35.248;149.138;2023-05-10T14:20:43;4.18;;;3.00;;
39930;SDS011;26635;-35.248;149.138;2023-05-10T14:23:14;6.60;;;3.20;;
39930;SDS011;26635;-35.248;149.138;2023-05-10T14:25:47;6.30;;;2.80;;
39930;SDS011;26635;-35.248;149.138;2023-05-10T14:28:17;6.53;;;3.90;;
39930;SDS011;26635;-35.248;149.138;2023-05-10T14:30:48;6.22;;;3.45;;
39930;SDS011;26635;-35.248;149.138;2023-05-10T14:33:19;8.15;;;3.40;;
39930;SDS011;26635;-35.248;149.138;2023-05-10T14:35:49;6.82;;;2.80;;
39930;SDS011;26635;-35.248;149.138;2023-05-10T14:38:28;7.38;;;3.10;;
39930;SDS011;26635;-35.248;149.138;2023-05-10T14:40:58;5.22;;;2.58;;
39930;SDS011;26635;-35.248;149.138;2023-05-10T14:43:29;7.45;;;4.38;;
39930;SDS011;26635;-35.248;149.138;2023-05-10T14:45:59;5.20;;;2.90;;
39930;SDS011;26635;-35.248;149.138;2023-05-10T14:48:29;7.57;;;2.97;;
39930;SDS011;26635;-35.248;149.138;2023-05-10T14:51:00;5.20;;;2.78;;
39930;SDS011;26635;-35.248;149.138;2023-05-10T14:53:30;5.47;;;2.90;;
39930;SDS011;26635;-35.248;149.138;2023-05-10T14:56:01;5.95;;;2.90;;
39930;SDS011;26635;-35.248;149.138;2023-05-10T14:58:31;5.70;;;3.20;;
39930;SDS011;26635;-35.248;149.138;2023-05-10T15:01:02;9.10;;;2.65;;
39930;SDS011;26635;-35.248;149.138;2023-05-10T15:03:32;5.13;;;2.58;;
39930;SDS011;26635;-35.248;149.138;2023-05-10T15:06:03;4.93;;;2.50;;
39930;SDS011;26635;-35.248;149.138;2023-05-10T15:08:34;6.13;;;2.60;;
39930;SDS011;26635;-35.248;149.138;2023-05-10T15:11:04;5.95;;;2.63;;
39930;SDS011;26635;-35.248;149.138;2023-05-10T15:13:35;5.32;;;3.42;;
39930;SDS011;26635;-35.248;149.138;2023-05-10T15:16:05;6.45;;;3.08;;